• Join FlightAware (Why Join?)
  • Login
  • US Flag 
06:15AM EDT


 

Airport Tracker/Info


-or-


 

Live Flight TrackerFlight Track Log ✈ N655CM ✈ 26-Apr-2014 ✈ KCLT - KPBI

Flight Track Log - Related Links

Times and Time Zones

All times are in EDT time to prevent confusion due to time zone crossing. See the N655CM flight status page for this flight to view local times or setup timezone preferences in your user account.

Time Position Orientation Groundspeed Altitude Reporting Facility
EDT Latitude Longitude Course Direction KTS MPH feet Rate Location/Type
01:36PM 35.1739 -80.9311 160° South 188 216 3,200  Level Atlanta Center
01:37PM 35.1156 -80.9308 180° South 231 266 6,100 2,460 Climbing Atlanta Center
01:38PM 35.1033 -80.9389 208° Southwest 243 280 6,200 1,620 Climbing Atlanta Center
01:38PM 35.0606 -80.9861 222° Southwest 273 314 7,800 1,680 Climbing Atlanta Center
01:39PM 35.0506 -80.9992 227° Southwest 246 283 7,900 1,320 Climbing Atlanta Center
01:39PM 35.0078 -81.0414 219° Southwest 228 262 9,200 1,260 Climbing Atlanta Center
01:41PM 34.8325 -81.0464 181° South 330 380 11,600 1,320 Climbing Jacksonville Center
01:42PM 34.7367 -81.0483 181° South 335 386 13,300 1,500 Climbing Jacksonville Center
01:43PM 34.6344 -81.0481 180° South 341 392 14,600 1,500 Climbing Jacksonville Center
01:44PM 34.5281 -81.0528 182° South 365 420 16,300 1,560 Climbing Jacksonville Center
01:45PM 34.4197 -81.0575 182° South 387 445 17,800 1,380 Climbing Jacksonville Center
01:46PM 34.3072 -81.0600 181° South 398 458 19,100 1,320 Climbing Jacksonville Center
01:47PM 34.1986 -81.0622 181° South 398 458 20,500 1,200 Climbing Jacksonville Center
01:48PM 34.0839 -81.0672 182° South 403 464 21,600 1,200 Climbing Jacksonville Center
01:49PM 33.9692 -81.0669 180° South 408 470 22,900 1,560 Climbing Jacksonville Center
01:50PM 33.8567 -81.0694 181° South 408 470 24,800 1,680 Climbing Jacksonville Center
01:51PM 33.7711 -81.0736 182° South 408 470 26,300 1,320 Climbing Jacksonville Center
01:52PM 33.6458 -81.0764 181° South 402 463 27,500 840 Climbing Jacksonville Center
01:53PM 33.5292 -81.0786 181° South 407 468 28,000 780 Climbing Jacksonville Center
01:54PM 33.4103 -81.0811 181° South 418 481 29,100 1,080 Climbing Jacksonville Center
01:55PM 33.2892 -81.0861 182° South 423 487 30,200 960 Climbing Jacksonville Center
01:56PM 33.1703 -81.0883 181° South 428 493 31,100 960 Climbing Jacksonville Center
01:57PM 33.0514 -81.0908 181° South 428 493 32,200 1,200 Climbing Jacksonville Center
01:58PM 32.9344 -81.0858 178° South 428 493 33,600 1,080 Climbing Jacksonville Center
01:59PM 32.8131 -81.0636 171° South 428 493 34,400 780 Climbing Jacksonville Center
02:00PM 32.6958 -81.0436 172° South 433 498 35,200 900 Climbing Jacksonville Center
02:01PM 32.5767 -81.0336 176° South 433 498 36,200 900 Climbing Jacksonville Center
02:02PM 32.4597 -81.0361 181° South 421 484 37,100 660 Climbing Jacksonville Center
02:03PM 32.3367 -81.0411 182° South 414 476 37,600 420 Climbing Jacksonville Center
02:04PM 32.2156 -81.0436 181° South 425 489 38,000 180 Climbing Jacksonville Center
02:05PM 32.1031 -81.0433 180° South 443 510 38,000  Level Jacksonville Center
02:06PM 31.9672 -81.0511 183° South 449 517 38,000  Level Jacksonville Center
02:07PM 31.8381 -81.0536 181° South 456 525 38,000  Level Jacksonville Center
02:08PM 31.7253 -81.0583 182° South 462 532 38,000  Level Jacksonville Center
02:09PM 31.5833 -81.0611 181° South 462 532 38,000  Level Jacksonville Center
02:10PM 31.4664 -81.0633 181° South 462 532 38,000  Level Jacksonville Center
02:11PM 31.3244 -81.0661 181° South 462 532 38,000  Level Jacksonville Center
02:12PM 31.1972 -81.0686 181° South 457 526 38,000  Level Jacksonville Center
02:13PM 31.0700 -81.0736 182° South 457 526 38,000  Level Jacksonville Center
02:14PM 30.9425 -81.0758 181° South 457 526 38,000  Level Jacksonville Center
02:15PM 30.8172 -81.0783 181° South 457 526 38,000  Level Jacksonville Center
02:16PM 30.6900 -81.0833 182° South 457 526 38,000  Level Jacksonville Center
02:17PM 30.5669 -81.0856 181° South 457 526 38,000  Level Jacksonville Center
02:18PM 30.4394 -81.0881 181° South 457 526 38,000  Level Jacksonville Center
02:19PM 30.3122 -81.0903 181° South 457 526 38,000  Level Jacksonville Center
02:20PM 30.1994 -81.0947 182° South 457 526 38,000  Level Jacksonville Center
02:21PM 30.0722 -81.0997 182° South 457 526 38,000 -180 Level Jacksonville Center
02:22PM 29.9469 -81.1019 181° South 457 526 37,700 -600 Descending Jacksonville Center
02:23PM 29.8219 -81.1042 181° South 457 526 36,800 -900 Descending Jacksonville Center
02:24PM 29.6967 -81.1067 181° South 457 526 36,000 -300 Descending Jacksonville Center
02:27PM 29.4097 -81.1150 181° South 457 526 36,000  Level Miami Center
02:28PM 29.2789 -81.1028 175° South 462 532 36,000  Level Miami Center
02:29PM 29.1603 -81.0219 149° Southeast 467 537 36,000  Level Miami Center
02:30PM 29.0481 -80.9325 145° Southeast 477 549 36,000  Level Miami Center
02:31PM 28.9317 -80.8475 147° Southeast 484 557 36,000  Level Miami Center
02:32PM 28.8214 -80.7606 145° Southeast 489 563 36,000 -300 Level Miami Center
02:33PM 28.7067 -80.6808 149° Southeast 489 563 35,400 -1,560 Descending Miami Center
02:34PM 28.5961 -80.6014 148° Southeast 489 563 32,900 300 Descending Miami Center
02:35PM 28.4875 -80.5247 148° Southeast 465 535 36,000 -2,580 Climbing Miami Center
02:36PM 28.3914 -80.4553 148° Southeast 458 527 27,800 -5,400 Descending Miami Center
02:37PM 28.2744 -80.3692 147° Southeast 458 527 25,200 -2,400 Descending Miami Center
02:38PM 28.1636 -80.2928 149° Southeast 466 536 23,000 -2,220 Descending Miami Center
02:39PM 28.0569 -80.2142 147° Southeast 466 536 20,800 -2,220 Descending Miami Center
02:40PM 27.9511 -80.1853 166° South 438 504 18,600 -2,040 Descending Miami Center
02:41PM 27.8364 -80.1794 177° South 430 495 16,800 -1,740 Descending Miami Center
02:42PM 27.7178 -80.1689 175° South 401 461 15,200 -900 Descending Miami Center
02:43PM 27.6114 -80.1611 176° South 388 447 15,000 -120 Descending Miami Center
02:44PM 27.5092 -80.1536 176° South 375 432 15,000 -900 Level Miami Center
02:45PM 27.4197 -80.1464 176° South 370 426 13,300 -2,460 Descending Miami Center
02:46PM 27.3197 -80.1367 175° South 364 419 10,100 -1,860 Descending Miami Center
02:47PM 27.2219 -80.1197 171° South 341 392 9,600 -1,020 Descending Miami Center
02:48PM 27.1344 -80.1103 175° South 326 375 8,100 -1,500 Descending Miami Center
02:49PM 27.0553 -80.1011 174° South 308 354 6,700 -1,440 Descending Miami Center
02:50PM 26.9906 -80.0947 175° South 282 325 5,300 -1,380 Descending Miami Center
02:51PM 26.9178 -80.0833 172° South 275 316 4,000 -660 Descending Miami Center
02:52PM 26.8486 -80.0953 189° South 240 276 4,000 -300 Level Miami Center
02:53PM 26.8039 -80.1406 222° Southwest 220 253 3,400 -720 Descending Miami Center
02:54PM 26.7569 -80.1836 219° Southwest 220 253 2,600 -840 Descending Miami Center
02:56PM 26.6832 -80.0956 254° West  Level Estimated
03:03PM 26.6832 -80.0956 110° East  Level Estimated
03:04PM 26.6832 -80.0956 110° East  Level Estimated
03:05PM 26.6832 -80.0956 110° East  Level Estimated
03:06PM 26.6832 -80.0956 110° East  Level Estimated